Silver Ford, Pennsylvania
Current Conditions -  °F | °C
As of 3:46 AM on Friday 24 Oct 2014 (Local Time) from KAOO Reporting Station
Scattered Clouds Scattered Clouds  
Wind Chill: 43°   Ceiling: Unl
Heat Index: 48°   Visibility: 10mi
Dew Point: 42°   Wind: 13mph
Humidity: 80%   Direction: 290°WNW
Pressure: 29.99"   Gusts: NA
Location:  40.4281°N, 77.8329°W
Report Text: KAOO 240746Z AUTO 29011KT 10SM SCT021 09/06 A2999 RMK AO2 T00890056
Loading
Personal Weather Stations






























Interactive Weather Map
Tropical Storm Tracking
New forecast layout! Learn more

10-Day Weather Forecast

Advertisements
Track Severe Weather on mobile